sensor_id;sensor_type;location;lat;lon;timestamp;temperature;humidity
1413;DHT22;701;52.526;13.408;2023-05-31T00:00:26;14.40;8.60
1413;DHT22;701;52.526;13.408;2023-05-31T00:02:51;14.40;8.60
1413;DHT22;701;52.526;13.408;2023-05-31T00:05:17;14.30;8.50
1413;DHT22;701;52.526;13.408;2023-05-31T00:07:43;14.30;8.50
1413;DHT22;701;52.526;13.408;2023-05-31T00:10:09;14.30;8.50
1413;DHT22;701;52.526;13.408;2023-05-31T00:12:35;14.30;8.80
1413;DHT22;701;52.526;13.408;2023-05-31T00:15:01;14.20;8.80
1413;DHT22;701;52.526;13.408;2023-05-31T00:17:26;14.20;8.80
1413;DHT22;701;52.526;13.408;2023-05-31T00:19:52;14.20;8.90
1413;DHT22;701;52.526;13.408;2023-05-31T00:22:18;14.10;9.80
1413;DHT22;701;52.526;13.408;2023-05-31T00:24:44;14.10;9.30
1413;DHT22;701;52.526;13.408;2023-05-31T00:27:09;14.10;9.30
1413;DHT22;701;52.526;13.408;2023-05-31T00:29:35;14.10;9.30
1413;DHT22;701;52.526;13.408;2023-05-31T00:32:01;14.00;9.50
1413;DHT22;701;52.526;13.408;2023-05-31T00:34:27;14.00;9.60
1413;DHT22;701;52.526;13.408;2023-05-31T00:36:53;13.90;9.60
1413;DHT22;701;52.526;13.408;2023-05-31T00:39:18;13.90;9.90
1413;DHT22;701;52.526;13.408;2023-05-31T00:41:44;13.90;10.00
1413;DHT22;701;52.526;13.408;2023-05-31T00:44:10;13.80;10.00
1413;DHT22;701;52.526;13.408;2023-05-31T00:46:38;13.80;10.00
1413;DHT22;701;52.526;13.408;2023-05-31T00:49:06;13.80;10.00
1413;DHT22;701;52.526;13.408;2023-05-31T00:51:33;13.80;10.00
1413;DHT22;701;52.526;13.408;2023-05-31T00:54:01;13.70;10.20
1413;DHT22;701;52.526;13.408;2023-05-31T00:56:28;13.70;10.20
1413;DHT22;701;52.526;13.408;2023-05-31T00:58:56;13.70;10.20
1413;DHT22;701;52.526;13.408;2023-05-31T01:01:23;13.70;10.20
1413;DHT22;701;52.526;13.408;2023-05-31T01:03:56;13.70;10.30
1413;DHT22;701;52.526;13.408;2023-05-31T01:06:22;13.60;10.60
1413;DHT22;701;52.526;13.408;2023-05-31T01:08:55;13.60;10.60
1413;DHT22;701;52.526;13.408;2023-05-31T01:19:54;13.50;11.00
1413;DHT22;701;52.526;13.408;2023-05-31T01:22:26;13.50;10.90
1413;DHT22;701;52.526;13.408;2023-05-31T01:25:10;13.50;11.10
1413;DHT22;701;52.526;13.408;2023-05-31T01:27:42;13.40;11.10
1413;DHT22;701;52.526;13.408;2023-05-31T01:30:09;13.40;11.10
1413;DHT22;701;52.526;13.408;2023-05-31T01:32:36;13.30;11.20
1413;DHT22;701;52.526;13.408;2023-05-31T01:35:03;13.30;11.20
1413;DHT22;701;52.526;13.408;2023-05-31T01:37:29;13.30;11.40
1413;DHT22;701;52.526;13.408;2023-05-31T01:39:55;13.30;11.50
1413;DHT22;701;52.526;13.408;2023-05-31T01:42:22;13.20;11.60
1413;DHT22;701;52.526;13.408;2023-05-31T01:44:51;13.20;11.60
1413;DHT22;701;52.526;13.408;2023-05-31T01:47:17;13.20;11.60
1413;DHT22;701;52.526;13.408;2023-05-31T01:49:44;13.10;11.50
1413;DHT22;701;52.526;13.408;2023-05-31T01:52:13;13.10;11.50
1413;DHT22;701;52.526;13.408;2023-05-31T01:54:43;13.10;11.50
1413;DHT22;701;52.526;13.408;2023-05-31T01:57:09;13.00;11.90
1413;DHT22;701;52.526;13.408;2023-05-31T01:59:37;13.00;11.90
1413;DHT22;701;52.526;13.408;2023-05-31T02:02:06;13.00;12.00
1413;DHT22;701;52.526;13.408;2023-05-31T02:04:32;12.90;12.60
1413;DHT22;701;52.526;13.408;2023-05-31T02:06:58;12.90;12.20
1413;DHT22;701;52.526;13.408;2023-05-31T02:09:25;12.90;12.20
1413;DHT22;701;52.526;13.408;2023-05-31T02:11:51;12.90;12.30
1413;DHT22;701;52.526;13.408;2023-05-31T02:14:17;12.80;12.30
1413;DHT22;701;52.526;13.408;2023-05-31T02:16:43;12.80;12.40
1413;DHT22;701;52.526;13.408;2023-05-31T02:19:08;12.80;12.60
1413;DHT22;701;52.526;13.408;2023-05-31T02:21:40;12.70;12.60
1413;DHT22;701;52.526;13.408;2023-05-31T02:24:08;12.70;12.80
1413;DHT22;701;52.526;13.408;2023-05-31T02:26:34;12.70;13.00
1413;DHT22;701;52.526;13.408;2023-05-31T02:29:00;12.60;13.00
1413;DHT22;701;52.526;13.408;2023-05-31T02:31:25;12.60;13.60
1413;DHT22;701;52.526;13.408;2023-05-31T02:33:51;12.60;13.00
1413;DHT22;701;52.526;13.408;2023-05-31T02:36:17;12.60;13.20
1413;DHT22;701;52.526;13.408;2023-05-31T02:38:44;12.50;13.20
1413;DHT22;701;52.526;13.408;2023-05-31T02:41:12;12.50;13.20
1413;DHT22;701;52.526;13.408;2023-05-31T02:43:38;12.50;13.30
1413;DHT22;701;52.526;13.408;2023-05-31T02:46:03;12.50;13.30
1413;DHT22;701;52.526;13.408;2023-05-31T02:48:30;12.50;13.70
1413;DHT22;701;52.526;13.408;2023-05-31T02:50:57;12.40;13.50
1413;DHT22;701;52.526;13.408;2023-05-31T02:53:42;12.40;13.40
1413;DHT22;701;52.526;13.408;2023-05-31T02:56:12;12.40;13.30
1413;DHT22;701;52.526;13.408;2023-05-31T02:58:47;12.40;13.40
1413;DHT22;701;52.526;13.408;2023-05-31T03:01:25;12.40;13.50
1413;DHT22;701;52.526;13.408;2023-05-31T03:04:13;12.30;13.60
1413;DHT22;701;52.526;13.408;2023-05-31T03:06:39;12.30;13.70
1413;DHT22;701;52.526;13.408;2023-05-31T03:09:06;12.30;13.90
1413;DHT22;701;52.526;13.408;2023-05-31T03:11:34;12.30;13.80
1413;DHT22;701;52.526;13.408;2023-05-31T03:14:00;12.30;14.00
1413;DHT22;701;52.526;13.408;2023-05-31T03:16:36;12.30;14.20
1413;DHT22;701;52.526;13.408;2023-05-31T03:19:01;12.30;14.00
1413;DHT22;701;52.526;13.408;2023-05-31T03:21:29;12.20;14.10
1413;DHT22;701;52.526;13.408;2023-05-31T03:23:55;12.20;14.10
1413;DHT22;701;52.526;13.408;2023-05-31T03:26:20;12.20;14.30
1413;DHT22;701;52.526;13.408;2023-05-31T03:28:46;12.20;14.30
1413;DHT22;701;52.526;13.408;2023-05-31T03:31:12;12.20;14.20
1413;DHT22;701;52.526;13.408;2023-05-31T03:33:38;12.20;14.40
1413;DHT22;701;52.526;13.408;2023-05-31T03:36:04;12.20;14.30
1413;DHT22;701;52.526;13.408;2023-05-31T03:38:30;12.20;14.20
1413;DHT22;701;52.526;13.408;2023-05-31T03:40:56;12.20;14.10
1413;DHT22;701;52.526;13.408;2023-05-31T03:43:21;12.20;14.20
1413;DHT22;701;52.526;13.408;2023-05-31T03:45:47;12.20;14.10
1413;DHT22;701;52.526;13.408;2023-05-31T03:48:13;12.30;14.10
1413;DHT22;701;52.526;13.408;2023-05-31T03:50:39;12.30;14.10
1413;DHT22;701;52.526;13.408;2023-05-31T03:53:06;12.30;14.00
1413;DHT22;701;52.526;13.408;2023-05-31T03:55:32;12.30;13.90
1413;DHT22;701;52.526;13.408;2023-05-31T03:57:58;12.40;14.00
1413;DHT22;701;52.526;13.408;2023-05-31T04:00:24;12.40;14.00
1413;DHT22;701;52.526;13.408;2023-05-31T04:02:51;12.40;13.90
1413;DHT22;701;52.526;13.408;2023-05-31T04:05:17;12.40;13.80
1413;DHT22;701;52.526;13.408;2023-05-31T04:07:43;12.40;13.80
1413;DHT22;701;52.526;13.408;2023-05-31T04:10:09;12.40;13.80
1413;DHT22;701;52.526;13.408;2023-05-31T04:12:35;12.50;13.80
1413;DHT22;701;52.526;13.408;2023-05-31T04:15:01;12.50;13.70
1413;DHT22;701;52.526;13.408;2023-05-31T04:17:27;12.50;13.70
1413;DHT22;701;52.526;13.408;2023-05-31T04:19:53;12.50;13.60
1413;DHT22;701;52.526;13.408;2023-05-31T04:22:18;12.50;13.50
1413;DHT22;701;52.526;13.408;2023-05-31T04:24:46;12.60;13.60
1413;DHT22;701;52.526;13.408;2023-05-31T04:27:16;12.60;13.50
1413;DHT22;701;52.526;13.408;2023-05-31T04:29:45;12.60;13.50
1413;DHT22;701;52.526;13.408;2023-05-31T04:32:16;12.70;13.50
1413;DHT22;701;52.526;13.408;2023-05-31T04:34:42;12.70;13.40
1413;DHT22;701;52.526;13.408;2023-05-31T04:37:08;12.70;13.40
1413;DHT22;701;52.526;13.408;2023-05-31T04:39:35;12.80;13.30
1413;DHT22;701;52.526;13.408;2023-05-31T04:42:02;12.80;13.20
1413;DHT22;701;52.526;13.408;2023-05-31T04:44:28;12.90;13.10
1413;DHT22;701;52.526;13.408;2023-05-31T04:46:54;12.90;13.00
1413;DHT22;701;52.526;13.408;2023-05-31T04:49:20;13.00;12.90
1413;DHT22;701;52.526;13.408;2023-05-31T04:51:47;13.00;12.80
1413;DHT22;701;52.526;13.408;2023-05-31T04:54:13;13.10;12.70
1413;DHT22;701;52.526;13.408;2023-05-31T04:56:39;13.10;12.50
1413;DHT22;701;52.526;13.408;2023-05-31T04:59:06;13.20;12.40
1413;DHT22;701;52.526;13.408;2023-05-31T05:01:32;13.30;12.30
1413;DHT22;701;52.526;13.408;2023-05-31T05:04:02;13.30;12.10
1413;DHT22;701;52.526;13.408;2023-05-31T05:06:29;13.40;12.00
1413;DHT22;701;52.526;13.408;2023-05-31T05:08:55;13.40;11.70
1413;DHT22;701;52.526;13.408;2023-05-31T05:11:23;13.50;11.80
1413;DHT22;701;52.526;13.408;2023-05-31T05:13:49;13.50;11.80
1413;DHT22;701;52.526;13.408;2023-05-31T05:16:15;13.60;11.90
1413;DHT22;701;52.526;13.408;2023-05-31T05:18:41;13.70;12.10
1413;DHT22;701;52.526;13.408;2023-05-31T05:21:06;13.70;11.40
1413;DHT22;701;52.526;13.408;2023-05-31T05:23:35;13.80;11.30
1413;DHT22;701;52.526;13.408;2023-05-31T05:26:03;13.80;11.00
1413;DHT22;701;52.526;13.408;2023-05-31T05:28:29;13.90;10.90
1413;DHT22;701;52.526;13.408;2023-05-31T05:30:55;14.00;10.70
1413;DHT22;701;52.526;13.408;2023-05-31T05:33:23;14.00;10.60
1413;DHT22;701;52.526;13.408;2023-05-31T05:35:49;14.10;10.50
1413;DHT22;701;52.526;13.408;2023-05-31T05:38:15;14.20;10.40
1413;DHT22;701;52.526;13.408;2023-05-31T05:40:41;14.30;10.10
1413;DHT22;701;52.526;13.408;2023-05-31T05:43:08;14.40;10.00
1413;DHT22;701;52.526;13.408;2023-05-31T05:45:44;14.50;9.70
1413;DHT22;701;52.526;13.408;2023-05-31T05:48:10;14.60;9.50
1413;DHT22;701;52.526;13.408;2023-05-31T05:50:36;14.60;9.30
1413;DHT22;701;52.526;13.408;2023-05-31T05:53:01;14.70;9.20
1413;DHT22;701;52.526;13.408;2023-05-31T05:55:30;14.80;8.90
1413;DHT22;701;52.526;13.408;2023-05-31T05:57:57;14.90;8.90
1413;DHT22;701;52.526;13.408;2023-05-31T06:00:54;14.90;8.90
1413;DHT22;701;52.526;13.408;2023-05-31T06:03:21;15.10;9.10
1413;DHT22;701;52.526;13.408;2023-05-31T06:05:49;15.20;9.10
1413;DHT22;701;52.526;13.408;2023-05-31T06:08:15;15.30;8.60
1413;DHT22;701;52.526;13.408;2023-05-31T06:10:41;15.30;8.40
1413;DHT22;701;52.526;13.408;2023-05-31T06:13:08;15.40;8.30
1413;DHT22;701;52.526;13.408;2023-05-31T06:15:34;15.50;8.10
1413;DHT22;701;52.526;13.408;2023-05-31T06:18:00;15.60;8.00
1413;DHT22;701;52.526;13.408;2023-05-31T06:20:26;15.70;7.90
1413;DHT22;701;52.526;13.408;2023-05-31T06:22:52;15.70;7.70
1413;DHT22;701;52.526;13.408;2023-05-31T06:25:22;15.80;7.60
1413;DHT22;701;52.526;13.408;2023-05-31T06:27:48;15.90;7.50
1413;DHT22;701;52.526;13.408;2023-05-31T06:30:15;16.00;7.30
1413;DHT22;701;52.526;13.408;2023-05-31T06:32:44;16.10;7.20
1413;DHT22;701;52.526;13.408;2023-05-31T06:35:14;16.30;7.30
1413;DHT22;701;52.526;13.408;2023-05-31T06:37:40;17.40;6.70
1413;DHT22;701;52.526;13.408;2023-05-31T06:40:07;19.60;4.30
1413;DHT22;701;52.526;13.408;2023-05-31T06:42:35;22.00;1.00
1413;DHT22;701;52.526;13.408;2023-05-31T06:45:21;24.50;1.00
1413;DHT22;701;52.526;13.408;2023-05-31T06:47:52;27.00;1.00
1413;DHT22;701;52.526;13.408;2023-05-31T06:50:18;29.10;1.00
1413;DHT22;701;52.526;13.408;2023-05-31T06:53:04;31.00;1.00
1413;DHT22;701;52.526;13.408;2023-05-31T06:55:42;32.80;1.00
1413;DHT22;701;52.526;13.408;2023-05-31T06:58:10;34.40;1.00
1413;DHT22;701;52.526;13.408;2023-05-31T07:00:39;35.80;1.00
1413;DHT22;701;52.526;13.408;2023-05-31T07:03:06;37.00;1.00
1413;DHT22;701;52.526;13.408;2023-05-31T07:05:33;38.20;1.00
1413;DHT22;701;52.526;13.408;2023-05-31T07:07:59;39.40;1.00
1413;DHT22;701;52.526;13.408;2023-05-31T07:10:26;40.20;1.00
1413;DHT22;701;52.526;13.408;2023-05-31T07:12:55;40.80;1.00
1413;DHT22;701;52.526;13.408;2023-05-31T07:15:21;41.60;1.00
1413;DHT22;701;52.526;13.408;2023-05-31T07:17:47;41.80;1.00
1413;DHT22;701;52.526;13.408;2023-05-31T07:20:13;42.20;1.00
1413;DHT22;701;52.526;13.408;2023-05-31T07:22:39;42.70;1.00
1413;DHT22;701;52.526;13.408;2023-05-31T07:25:05;43.20;1.00
1413;DHT22;701;52.526;13.408;2023-05-31T07:27:31;43.80;1.00
1413;DHT22;701;52.526;13.408;2023-05-31T07:29:57;44.40;1.00
1413;DHT22;701;52.526;13.408;2023-05-31T07:32:23;44.50;1.00
1413;DHT22;701;52.526;13.408;2023-05-31T07:34:49;44.60;1.00
1413;DHT22;701;52.526;13.408;2023-05-31T07:37:15;45.00;1.00
1413;DHT22;701;52.526;13.408;2023-05-31T07:39:41;45.60;1.00
1413;DHT22;701;52.526;13.408;2023-05-31T07:42:07;46.00;1.00
1413;DHT22;701;52.526;13.408;2023-05-31T07:44:33;46.30;1.00
1413;DHT22;701;52.526;13.408;2023-05-31T07:46:59;46.70;1.00
1413;DHT22;701;52.526;13.408;2023-05-31T07:49:25;47.10;1.00
1413;DHT22;701;52.526;13.408;2023-05-31T07:51:52;47.20;1.00
1413;DHT22;701;52.526;13.408;2023-05-31T07:54:17;47.10;1.00
1413;DHT22;701;52.526;13.408;2023-05-31T07:56:43;47.00;1.00
1413;DHT22;701;52.526;13.408;2023-05-31T07:59:09;46.70;1.00
1413;DHT22;701;52.526;13.408;2023-05-31T08:01:35;46.40;1.00
1413;DHT22;701;52.526;13.408;2023-05-31T08:04:11;46.00;1.00
1413;DHT22;701;52.526;13.408;2023-05-31T08:06:37;45.70;1.00
1413;DHT22;701;52.526;13.408;2023-05-31T08:09:04;45.20;1.00
1413;DHT22;701;52.526;13.408;2023-05-31T08:11:31;44.80;1.00
1413;DHT22;701;52.526;13.408;2023-05-31T08:13:57;45.00;1.00
1413;DHT22;701;52.526;13.408;2023-05-31T08:16:23;45.20;1.00
1413;DHT22;701;52.526;13.408;2023-05-31T08:18:48;45.40;1.00
1413;DHT22;701;52.526;13.408;2023-05-31T08:21:15;45.60;1.00
1413;DHT22;701;52.526;13.408;2023-05-31T08:23:41;45.40;1.00
1413;DHT22;701;52.526;13.408;2023-05-31T08:26:06;45.00;1.00
1413;DHT22;701;52.526;13.408;2023-05-31T08:28:34;44.70;1.00
1413;DHT22;701;52.526;13.408;2023-05-31T08:31:00;44.50;1.00
1413;DHT22;701;52.526;13.408;2023-05-31T08:33:29;44.70;1.00
1413;DHT22;701;52.526;13.408;2023-05-31T08:36:00;45.00;1.00
1413;DHT22;701;52.526;13.408;2023-05-31T08:38:29;45.00;1.00
1413;DHT22;701;52.526;13.408;2023-05-31T08:41:01;44.60;1.00
1413;DHT22;701;52.526;13.408;2023-05-31T08:43:28;44.20;1.00
1413;DHT22;701;52.526;13.408;2023-05-31T08:45:55;44.00;1.00
1413;DHT22;701;52.526;13.408;2023-05-31T08:50:56;44.10;1.00
1413;DHT22;701;52.526;13.408;2023-05-31T08:53:24;44.40;1.00
1413;DHT22;701;52.526;13.408;2023-05-31T08:55:52;44.70;1.00
1413;DHT22;701;52.526;13.408;2023-05-31T08:58:19;44.80;1.00
1413;DHT22;701;52.526;13.408;2023-05-31T09:00:45;44.50;1.00
1413;DHT22;701;52.526;13.408;2023-05-31T09:03:12;43.90;1.00
1413;DHT22;701;52.526;13.408;2023-05-31T09:05:38;43.50;1.00
1413;DHT22;701;52.526;13.408;2023-05-31T09:08:04;43.30;1.00
1413;DHT22;701;52.526;13.408;2023-05-31T09:10:31;43.40;1.00
1413;DHT22;701;52.526;13.408;2023-05-31T09:12:57;43.80;1.00
1413;DHT22;701;52.526;13.408;2023-05-31T09:15:24;44.30;1.00
1413;DHT22;701;52.526;13.408;2023-05-31T09:17:50;44.70;1.00
1413;DHT22;701;52.526;13.408;2023-05-31T09:20:18;45.20;1.00
1413;DHT22;701;52.526;13.408;2023-05-31T09:22:48;45.80;1.00
1413;DHT22;701;52.526;13.408;2023-05-31T09:25:16;46.40;1.00
1413;DHT22;701;52.526;13.408;2023-05-31T09:27:42;47.00;1.00
1413;DHT22;701;52.526;13.408;2023-05-31T09:32:35;47.20;1.00
1413;DHT22;701;52.526;13.408;2023-05-31T09:35:15;46.50;1.00
1413;DHT22;701;52.526;13.408;2023-05-31T09:37:46;45.70;1.00
1413;DHT22;701;52.526;13.408;2023-05-31T09:40:13;44.70;1.00
1413;DHT22;701;52.526;13.408;2023-05-31T09:42:47;43.80;1.00
1413;DHT22;701;52.526;13.408;2023-05-31T09:45:13;43.10;1.00
1413;DHT22;701;52.526;13.408;2023-05-31T09:47:39;42.50;1.00
1413;DHT22;701;52.526;13.408;2023-05-31T09:50:11;42.00;1.00
1413;DHT22;701;52.526;13.408;2023-05-31T09:52:43;41.50;1.00
1413;DHT22;701;52.526;13.408;2023-05-31T09:55:12;41.30;1.00
1413;DHT22;701;52.526;13.408;2023-05-31T09:57:39;41.30;1.00
1413;DHT22;701;52.526;13.408;2023-05-31T10:00:13;41.40;1.00
1413;DHT22;701;52.526;13.408;2023-05-31T10:02:50;41.40;1.00
1413;DHT22;701;52.526;13.408;2023-05-31T10:05:18;41.30;1.00
1413;DHT22;701;52.526;13.408;2023-05-31T10:07:46;40.90;1.00
1413;DHT22;701;52.526;13.408;2023-05-31T10:10:12;40.60;1.00
1413;DHT22;701;52.526;13.408;2023-05-31T10:12:45;40.40;1.00
1413;DHT22;701;52.526;13.408;2023-05-31T10:15:17;40.30;1.00
1413;DHT22;701;52.526;13.408;2023-05-31T10:17:49;40.10;1.00
1413;DHT22;701;52.526;13.408;2023-05-31T10:20:17;39.60;1.00
1413;DHT22;701;52.526;13.408;2023-05-31T10:22:46;39.10;1.00
1413;DHT22;701;52.526;13.408;2023-05-31T10:27:56;38.50;1.00
1413;DHT22;701;52.526;13.408;2023-05-31T10:30:26;38.40;1.00
1413;DHT22;701;52.526;13.408;2023-05-31T10:33:03;38.20;1.00
1413;DHT22;701;52.526;13.408;2023-05-31T10:35:31;37.80;1.00
1413;DHT22;701;52.526;13.408;2023-05-31T10:37:58;37.40;1.00
1413;DHT22;701;52.526;13.408;2023-05-31T10:40:35;37.00;1.00
1413;DHT22;701;52.526;13.408;2023-05-31T10:45:55;36.00;1.00
1413;DHT22;701;52.526;13.408;2023-05-31T10:48:58;35.40;1.00
1413;DHT22;701;52.526;13.408;2023-05-31T10:51:45;34.70;1.00
1413;DHT22;701;52.526;13.408;2023-05-31T10:54:21;34.20;1.00
1413;DHT22;701;52.526;13.408;2023-05-31T10:56:58;33.80;1.00
1413;DHT22;701;52.526;13.408;2023-05-31T10:59:26;33.50;1.00
1413;DHT22;701;52.526;13.408;2023-05-31T11:01:52;33.30;1.00
1413;DHT22;701;52.526;13.408;2023-05-31T11:04:24;33.20;1.00
1413;DHT22;701;52.526;13.408;2023-05-31T11:06:54;33.00;1.00
1413;DHT22;701;52.526;13.408;2023-05-31T11:09:21;32.70;1.00
1413;DHT22;701;52.526;13.408;2023-05-31T11:11:50;32.50;1.00
1413;DHT22;701;52.526;13.408;2023-05-31T11:19:17;31.50;1.00
1413;DHT22;701;52.526;13.408;2023-05-31T11:21:56;31.20;1.00
1413;DHT22;701;52.526;13.408;2023-05-31T11:26:57;30.90;1.00
1413;DHT22;701;52.526;13.408;2023-05-31T11:29:24;30.50;1.00
1413;DHT22;701;52.526;13.408;2023-05-31T11:31:56;30.20;1.00
1413;DHT22;701;52.526;13.408;2023-05-31T11:34:28;29.80;1.00
1413;DHT22;701;52.526;13.408;2023-05-31T11:37:00;29.40;1.00
1413;DHT22;701;52.526;13.408;2023-05-31T11:39:26;29.10;1.00
1413;DHT22;701;52.526;13.408;2023-05-31T11:41:55;28.80;1.00
1413;DHT22;701;52.526;13.408;2023-05-31T11:44:26;28.50;1.00
1413;DHT22;701;52.526;13.408;2023-05-31T11:47:03;28.30;1.00
1413;DHT22;701;52.526;13.408;2023-05-31T11:49:29;28.10;1.00
1413;DHT22;701;52.526;13.408;2023-05-31T11:51:56;27.90;1.00
1413;DHT22;701;52.526;13.408;2023-05-31T11:54:29;27.80;1.00
1413;DHT22;701;52.526;13.408;2023-05-31T11:57:03;27.50;1.00
1413;DHT22;701;52.526;13.408;2023-05-31T11:59:37;27.40;1.00
1413;DHT22;701;52.526;13.408;2023-05-31T12:02:07;27.40;1.00
1413;DHT22;701;52.526;13.408;2023-05-31T12:04:40;27.30;1.00
1413;DHT22;701;52.526;13.408;2023-05-31T12:07:15;27.20;1.00
1413;DHT22;701;52.526;13.408;2023-05-31T12:09:46;27.20;1.00
1413;DHT22;701;52.526;13.408;2023-05-31T12:12:12;27.20;1.00
1413;DHT22;701;52.526;13.408;2023-05-31T12:14:41;27.20;1.00
1413;DHT22;701;52.526;13.408;2023-05-31T12:17:14;27.20;1.00
1413;DHT22;701;52.526;13.408;2023-05-31T12:19:40;27.30;1.00
1413;DHT22;701;52.526;13.408;2023-05-31T12:22:05;27.30;1.00
1413;DHT22;701;52.526;13.408;2023-05-31T12:24:31;27.20;1.00
1413;DHT22;701;52.526;13.408;2023-05-31T12:26:57;27.10;1.00
1413;DHT22;701;52.526;13.408;2023-05-31T12:29:30;27.00;1.00
1413;DHT22;701;52.526;13.408;2023-05-31T12:32:05;26.90;1.00
1413;DHT22;701;52.526;13.408;2023-05-31T12:34:36;26.90;1.00
1413;DHT22;701;52.526;13.408;2023-05-31T12:37:06;26.90;1.00
1413;DHT22;701;52.526;13.408;2023-05-31T12:39:32;26.90;1.00
1413;DHT22;701;52.526;13.408;2023-05-31T12:42:00;26.80;1.00
1413;DHT22;701;52.526;13.408;2023-05-31T12:44:26;26.70;1.00
1413;DHT22;701;52.526;13.408;2023-05-31T12:47:03;26.70;1.00
1413;DHT22;701;52.526;13.408;2023-05-31T12:49:31;26.70;1.00
1413;DHT22;701;52.526;13.408;2023-05-31T12:52:04;26.70;1.00
1413;DHT22;701;52.526;13.408;2023-05-31T12:54:31;26.80;1.00
1413;DHT22;701;52.526;13.408;2023-05-31T12:56:59;26.90;1.00
1413;DHT22;701;52.526;13.408;2023-05-31T12:59:26;26.90;1.00
1413;DHT22;701;52.526;13.408;2023-05-31T13:01:54;27.00;1.00
1413;DHT22;701;52.526;13.408;2023-05-31T13:04:21;27.00;1.00
1413;DHT22;701;52.526;13.408;2023-05-31T13:06:47;27.00;1.00
1413;DHT22;701;52.526;13.408;2023-05-31T13:09:12;27.00;1.00
1413;DHT22;701;52.526;13.408;2023-05-31T13:11:39;27.00;1.00
1413;DHT22;701;52.526;13.408;2023-05-31T13:14:07;27.00;1.00
1413;DHT22;701;52.526;13.408;2023-05-31T13:16:34;27.10;1.00
1413;DHT22;701;52.526;13.408;2023-05-31T13:19:01;27.20;1.00
1413;DHT22;701;52.526;13.408;2023-05-31T13:21:28;27.20;1.00
1413;DHT22;701;52.526;13.408;2023-05-31T13:23:54;27.20;1.00
1413;DHT22;701;52.526;13.408;2023-05-31T13:26:20;27.30;1.00
1413;DHT22;701;52.526;13.408;2023-05-31T13:28:47;27.30;1.00
1413;DHT22;701;52.526;13.408;2023-05-31T13:31:13;27.40;1.00
1413;DHT22;701;52.526;13.408;2023-05-31T13:33:39;27.40;1.00
1413;DHT22;701;52.526;13.408;2023-05-31T13:36:05;27.50;1.00
1413;DHT22;701;52.526;13.408;2023-05-31T13:38:31;27.50;1.00
1413;DHT22;701;52.526;13.408;2023-05-31T13:40:57;27.50;1.00
1413;DHT22;701;52.526;13.408;2023-05-31T13:43:23;27.50;1.00
1413;DHT22;701;52.526;13.408;2023-05-31T13:45:50;27.50;1.00
1413;DHT22;701;52.526;13.408;2023-05-31T13:48:16;27.50;1.00
1413;DHT22;701;52.526;13.408;2023-05-31T13:50:42;27.40;1.00
1413;DHT22;701;52.526;13.408;2023-05-31T13:53:09;27.40;1.00
1413;DHT22;701;52.526;13.408;2023-05-31T13:55:35;27.50;1.00
1413;DHT22;701;52.526;13.408;2023-05-31T13:58:04;27.50;1.00
1413;DHT22;701;52.526;13.408;2023-05-31T14:00:31;27.60;1.00
1413;DHT22;701;52.526;13.408;2023-05-31T14:02:57;27.70;1.00
1413;DHT22;701;52.526;13.408;2023-05-31T14:05:23;27.90;1.00
1413;DHT22;701;52.526;13.408;2023-05-31T14:07:51;27.90;1.00
1413;DHT22;701;52.526;13.408;2023-05-31T14:10:18;28.00;1.00
1413;DHT22;701;52.526;13.408;2023-05-31T14:12:44;28.10;1.00
1413;DHT22;701;52.526;13.408;2023-05-31T14:15:10;28.20;1.00
1413;DHT22;701;52.526;13.408;2023-05-31T14:17:36;28.40;1.00
1413;DHT22;701;52.526;13.408;2023-05-31T14:20:02;28.50;1.00
1413;DHT22;701;52.526;13.408;2023-05-31T14:22:28;28.70;1.00
1413;DHT22;701;52.526;13.408;2023-05-31T14:24:54;28.80;1.00
1413;DHT22;701;52.526;13.408;2023-05-31T14:27:20;28.90;1.00
1413;DHT22;701;52.526;13.408;2023-05-31T14:29:46;28.90;1.00
1413;DHT22;701;52.526;13.408;2023-05-31T14:32:11;28.90;1.00
1413;DHT22;701;52.526;13.408;2023-05-31T14:34:44;28.90;1.00
1413;DHT22;701;52.526;13.408;2023-05-31T14:37:11;28.80;1.00
1413;DHT22;701;52.526;13.408;2023-05-31T14:39:37;28.80;1.00
1413;DHT22;701;52.526;13.408;2023-05-31T14:42:04;28.80;1.00
1413;DHT22;701;52.526;13.408;2023-05-31T14:44:32;28.80;1.00
1413;DHT22;701;52.526;13.408;2023-05-31T14:46:57;28.80;1.00
1413;DHT22;701;52.526;13.408;2023-05-31T14:49:23;28.70;1.00
1413;DHT22;701;52.526;13.408;2023-05-31T14:51:49;28.70;1.00
1413;DHT22;701;52.526;13.408;2023-05-31T14:54:17;28.70;1.00
1413;DHT22;701;52.526;13.408;2023-05-31T14:56:43;28.80;1.00
1413;DHT22;701;52.526;13.408;2023-05-31T14:59:10;28.70;1.00
1413;DHT22;701;52.526;13.408;2023-05-31T15:01:36;28.80;1.00
1413;DHT22;701;52.526;13.408;2023-05-31T15:04:16;28.80;1.00
1413;DHT22;701;52.526;13.408;2023-05-31T15:06:42;28.70;1.00
1413;DHT22;701;52.526;13.408;2023-05-31T15:09:09;28.70;1.00
1413;DHT22;701;52.526;13.408;2023-05-31T15:11:39;28.70;1.00
1413;DHT22;701;52.526;13.408;2023-05-31T15:14:05;28.80;1.00
1413;DHT22;701;52.526;13.408;2023-05-31T15:16:31;28.80;1.00
1413;DHT22;701;52.526;13.408;2023-05-31T15:18:58;28.90;1.00
1413;DHT22;701;52.526;13.408;2023-05-31T15:21:24;29.00;1.00
1413;DHT22;701;52.526;13.408;2023-05-31T15:23:49;29.00;1.00
1413;DHT22;701;52.526;13.408;2023-05-31T15:26:16;29.00;1.00
1413;DHT22;701;52.526;13.408;2023-05-31T15:28:42;29.00;1.00
1413;DHT22;701;52.526;13.408;2023-05-31T15:31:08;29.10;1.00
1413;DHT22;701;52.526;13.408;2023-05-31T15:33:35;29.10;1.00
1413;DHT22;701;52.526;13.408;2023-05-31T15:36:01;29.10;1.00
1413;DHT22;701;52.526;13.408;2023-05-31T15:38:28;29.00;1.00
1413;DHT22;701;52.526;13.408;2023-05-31T15:40:53;29.10;1.00
1413;DHT22;701;52.526;13.408;2023-05-31T15:43:21;29.00;1.00
1413;DHT22;701;52.526;13.408;2023-05-31T15:45:47;29.00;1.00
1413;DHT22;701;52.526;13.408;2023-05-31T15:48:13;28.90;1.00
1413;DHT22;701;52.526;13.408;2023-05-31T15:50:39;28.90;1.00
1413;DHT22;701;52.526;13.408;2023-05-31T15:53:04;28.90;1.00
1413;DHT22;701;52.526;13.408;2023-05-31T15:55:30;28.80;1.00
1413;DHT22;701;52.526;13.408;2023-05-31T15:57:56;28.70;1.00
1413;DHT22;701;52.526;13.408;2023-05-31T16:00:22;28.70;1.00
1413;DHT22;701;52.526;13.408;2023-05-31T16:02:48;28.60;1.00
1413;DHT22;701;52.526;13.408;2023-05-31T16:05:13;28.60;1.00
1413;DHT22;701;52.526;13.408;2023-05-31T16:07:42;28.60;1.00
1413;DHT22;701;52.526;13.408;2023-05-31T16:10:08;28.50;1.00
1413;DHT22;701;52.526;13.408;2023-05-31T16:12:34;28.40;1.00
1413;DHT22;701;52.526;13.408;2023-05-31T16:15:00;28.30;1.00
1413;DHT22;701;52.526;13.408;2023-05-31T16:17:26;28.20;1.00
1413;DHT22;701;52.526;13.408;2023-05-31T16:19:52;28.00;1.00
1413;DHT22;701;52.526;13.408;2023-05-31T16:22:18;27.90;1.00
1413;DHT22;701;52.526;13.408;2023-05-31T16:24:44;27.70;1.00
1413;DHT22;701;52.526;13.408;2023-05-31T16:27:11;27.50;1.00
1413;DHT22;701;52.526;13.408;2023-05-31T16:29:37;27.40;1.00
1413;DHT22;701;52.526;13.408;2023-05-31T16:32:03;27.20;1.00
1413;DHT22;701;52.526;13.408;2023-05-31T16:34:29;27.00;1.00
1413;DHT22;701;52.526;13.408;2023-05-31T16:36:55;26.90;1.00
1413;DHT22;701;52.526;13.408;2023-05-31T16:39:20;26.70;1.00
1413;DHT22;701;52.526;13.408;2023-05-31T16:41:46;26.60;1.00